Flight Track Log - Related Links

Times and Time Zones

All times are in EDT time to prevent confusion due to time zone crossing. See the N839CA flight status page for this flight to view local times or setup timezone preferences in your user account.

Time Position Orientation Groundspeed Altitude Reporting Facility
EDT Latitude Longitude Course Direction KTS MPH feet Rate Location/Type
Thu 07:31:42 PM 42.9333 -78.7333 180° South 129 148 1,200  Level Buffalo TRACON
Thu 07:32:42 PM 42.9000 -78.7333 180° South 147 169 2,300 1,100 Climbing Buffalo TRACON
Thu 07:33:42 PM 42.8500 -78.7167 166° South 167 192 3,400 1,125 Climbing Buffalo TRACON
Thu 07:35:22 PM 42.7861 -78.6650 149° Southeast 183 211 5,300 1,125 Climbing Cleveland Center
Thu 07:36:22 PM 42.7706 -78.6033 109° East 183 211 6,400 1,200 Climbing Cleveland Center
Thu 07:37:22 PM 42.7817 -78.5322 78° East 173 199 7,700 1,300 Climbing Cleveland Center
Thu 07:38:22 PM 42.7886 -78.4556 83° East 184 212 9,000 1,150 Climbing Cleveland Center
Thu 07:39:22 PM 42.7917 -78.3878 86° East 193 222 10,000 1,050 Climbing Cleveland Center
Thu 07:40:22 PM 42.7986 -78.3167 82° East 193 222 11,100 1,000 Climbing Cleveland Center
Thu 07:41:22 PM 42.8033 -78.2458 85° East 193 222 12,000 900 Climbing Cleveland Center
Thu 07:42:22 PM 42.8081 -78.1692 85° East 198 228 12,900 1,000 Climbing Cleveland Center
Thu 07:43:22 PM 42.8128 -78.0897 85° East 198 228 14,000 1,000 Climbing Cleveland Center
Thu 07:44:22 PM 42.8172 -78.0158 85° East 198 228 14,900 500 Climbing Cleveland Center
Thu 07:45:22 PM 42.8050 -77.9317 101° East 203 234 15,000 50 Climbing Cleveland Center
Thu 07:46:22 PM 42.7778 -77.8392 112° Southeast 229 264 15,000  Level Cleveland Center
Thu 07:47:22 PM 42.7522 -77.7331 108° East 253 291 15,000  Level Cleveland Center
Thu 07:48:22 PM 42.7247 -77.6353 111° Southeast 273 314 15,000  Level Cleveland Center
Thu 07:50:06 PM 42.6822 -77.4656 109° East 275 316 15,000  Level New York Center
Thu 07:51:07 PM 42.6519 -77.3694 113° Southeast 275 316 15,000  Level New York Center
Thu 07:52:05 PM 42.6264 -77.2681 109° East 280 322 15,000  Level New York Center
Thu 07:53:05 PM 42.5964 -77.1667 112° Southeast 280 322 15,000  Level New York Center
Thu 07:54:05 PM 42.5706 -77.0656 109° East 280 322 15,000  Level New York Center
Thu 07:55:06 PM 42.5425 -76.9669 111° Southeast 280 322 15,000 49 Level New York Center
Thu 07:56:07 PM 42.5122 -76.8658 112° Southeast 280 322 15,100 50 Climbing New York Center
Thu 07:57:05 PM 42.4861 -76.7650 109° East 280 322 15,100 -50 Level New York Center
Thu 07:58:07 PM 42.4558 -76.6639 112° Southeast 280 322 15,000  Descending New York Center
Thu 07:59:08 PM 42.4297 -76.5631 109° East 280 322 15,100 65 Climbing New York Center
Thu 07:59:39 PM 42.4128 -76.5097 113° Southeast 280 322 15,100 -66 Level Boston Center
Thu 08:00:39 PM 42.3831 -76.4094 112° Southeast 291 335 15,000 -50 Descending Boston Center
Thu 08:01:39 PM 42.3553 -76.3092 111° Southeast 291 335 15,000  Level Boston Center
Thu 08:02:39 PM 42.3256 -76.1978 110° East 291 335 15,000  Level Boston Center
Thu 08:03:39 PM 42.2936 -76.0978 113° Southeast 296 341 15,000  Level Boston Center
Thu 08:04:39 PM 42.2692 -76.0092 110° East 284 327 15,000  Level Boston Center
Thu 08:05:39 PM 42.2389 -75.9092 112° Southeast 284 327 15,000  Level Boston Center
Thu 08:06:51 PM 42.2106 -75.8097 111° Southeast 284 327 15,000  Level Boston Center
Thu 08:07:51 PM 42.1767 -75.6900 111° Southeast 279 321 15,000 50 Level Boston Center
Thu 08:08:51 PM 42.1481 -75.5933 112° Southeast 279 321 15,100  Climbing Boston Center
Thu 08:09:51 PM 42.1194 -75.4939 111° Southeast 279 321 15,000 -50 Descending Boston Center
Thu 08:10:51 PM 42.0889 -75.3944 112° Southeast 279 321 15,000 50 Level Boston Center
Thu 08:11:51 PM 42.0600 -75.2953 111° Southeast 279 321 15,100  Climbing Boston Center
Thu 08:12:51 PM 42.0228 -75.2014 118° Southeast 279 321 15,000 -50 Descending Boston Center
Thu 08:13:51 PM 41.9836 -75.1019 118° Southeast 279 321 15,000  Level Boston Center
Thu 08:14:51 PM 41.9483 -75.0056 116° Southeast 284 327 15,000  Level Boston Center
Thu 08:15:51 PM 41.9108 -74.9119 118° Southeast 284 327 15,000 -200 Level Boston Center
Thu 08:16:51 PM 41.8625 -74.8319 129° Southeast 280 322 14,600 -1,300 Descending Boston Center
Thu 08:17:51 PM 41.7900 -74.8069 166° South 280 322 12,400 -2,400 Descending Boston Center
Thu 08:18:51 PM 41.7117 -74.7622 157° South 285 328 9,800 -2,200 Descending Boston Center
Thu 08:19:51 PM 41.6500 -74.7267 157° South 285 328 8,000 -1,750 Descending Boston Center
Thu 08:20:51 PM 41.5758 -74.6794 155° Southeast 274 315 6,300 -1,000 Descending Boston Center
Thu 08:21:51 PM 41.5183 -74.6414 154° Southeast 268 308 6,000 -100 Descending Boston Center
Thu 08:22:51 PM 41.4867 -74.5517 115° Southeast 237 273 6,100  Climbing Boston Center
Thu 08:24:47 PM 41.3667 -74.5667 185° South 253 291 6,000  Descending New York TRACON
Thu 08:25:47 PM 41.3000 -74.5333 159° South 262 302 6,100  Climbing New York TRACON
Thu 08:26:47 PM 41.2333 -74.4833 151° Southeast 256 295 6,000 -52 Descending New York TRACON
Thu 08:27:42 PM 41.1833 -74.5000 194° South 252 290 6,000  Level New York TRACON
Thu 08:28:47 PM 41.1333 -74.4333 135° Southeast 248 285 6,000 -384 Level New York TRACON
Thu 08:29:47 PM 41.0833 -74.3667 135° Southeast 251 289 5,200 -522 Descending New York TRACON
Thu 08:30:42 PM 41.0500 -74.3000 124° Southeast 230 265 5,000 -300 Descending New York TRACON
Thu 08:31:47 PM 41.0167 -74.2167 118° Southeast 216 249 4,600 -500 Descending New York TRACON
Thu 08:32:42 PM 40.9833 -74.1667 131° Southeast 216 249 4,000 -574 Descending New York TRACON
Thu 08:33:42 PM 40.9333 -74.1167 143° Southeast 198 228 3,500 -480 Descending New York TRACON
Thu 08:34:47 PM 40.9000 -74.0833 143° Southeast 184 212 3,000 -300 Descending New York TRACON
Thu 08:35:42 PM 40.8500 -74.0667 166° South 176 203 2,900 -298 Descending New York TRACON
Thu 08:36:48 PM 40.8000 -74.1000 207° Southwest 163 188 2,400 -672 Descending New York TRACON
Thu 08:37:47 PM 40.7667 -74.1167 201° Southwest 162 186 1,500 -807 Descending New York TRACON
Thu 08:38:47 PM 40.7333 -74.1333 201° Southwest 129 148 800 -700 Descending New York TRACON

Login

Don't have an account? Register now (free) for customized features, flight alerts, and more!